createdAt,value
2022-12-24T00:01:34.005Z,96525.53
2022-12-24T00:04:00.902Z,96526.50
2022-12-24T00:06:27.395Z,96533.34
2022-12-24T00:08:53.945Z,96522.31
2022-12-24T00:11:20.962Z,96529.31
2022-12-24T00:13:47.637Z,96526.13
2022-12-24T00:16:14.655Z,96527.09
2022-12-24T00:18:45.956Z,96527.75
2022-12-24T00:21:13.641Z,96529.66
2022-12-24T00:23:40.587Z,96534.38
2022-12-24T00:26:07.152Z,96538.28
2022-12-24T00:28:33.807Z,96534.19
2022-12-24T00:31:00.396Z,96536.34
2022-12-24T00:33:26.868Z,96531.13
2022-12-24T00:35:53.692Z,96529.63
2022-12-24T00:38:20.493Z,96539.63
2022-12-24T00:40:46.950Z,96540.75
2022-12-24T00:43:13.564Z,96545.22
2022-12-24T00:45:39.958Z,96544.41
2022-12-24T00:48:06.700Z,96550.06
2022-12-24T00:50:33.357Z,96556.25
2022-12-24T00:53:00.017Z,96555.75
2022-12-24T00:55:26.465Z,96537.63
2022-12-24T00:57:52.865Z,96552.69
2022-12-24T01:00:19.737Z,96554.50
2022-12-24T01:02:46.519Z,96553.88
2022-12-24T01:05:13.320Z,96555.88
2022-12-24T01:07:44.651Z,96554.56
2022-12-24T01:10:13.604Z,96562.50
2022-12-24T01:12:40.928Z,96564.81
2022-12-24T01:15:08.670Z,96569.84
2022-12-24T01:17:35.740Z,96570.72
2022-12-24T01:20:03.587Z,96577.19
2022-12-24T01:22:30.142Z,96571.94
2022-12-24T01:24:56.617Z,96579.25
2022-12-24T01:27:23.373Z,96584.19
2022-12-24T01:29:49.803Z,96584.03
2022-12-24T01:32:16.577Z,96596.81
2022-12-24T01:34:43.111Z,96601.41
2022-12-24T01:37:09.625Z,96607.47
2022-12-24T01:39:36.113Z,96604.63
2022-12-24T01:42:21.226Z,96597.97
2022-12-24T01:44:51.286Z,96599.72
2022-12-24T01:47:25.735Z,96602.34
2022-12-24T01:49:57.262Z,96598.50
2022-12-24T01:52:30.443Z,96615.13
2022-12-24T01:55:03.736Z,96610.81
2022-12-24T01:57:34.649Z,96618.56
2022-12-24T02:00:05.277Z,96615.19
2022-12-24T02:02:33.445Z,96623.63
2022-12-24T02:05:10.807Z,96633.34
2022-12-24T02:07:37.598Z,96637.66
2022-12-24T02:10:05.373Z,96650.88
2022-12-24T02:12:36.104Z,96647.38
2022-12-24T02:15:03.529Z,96641.06
2022-12-24T02:18:06.627Z,96641.44
2022-12-24T02:20:58.365Z,96639.41
2022-12-24T02:24:03.550Z,96638.66
2022-12-24T02:26:54.004Z,96648.78
2022-12-24T02:29:36.727Z,96652.81
2022-12-24T02:32:13.413Z,96666.19
2022-12-24T02:34:50.479Z,96667.31
2022-12-24T02:37:20.232Z,96666.91
2022-12-24T02:39:54.289Z,96671.28
2022-12-24T02:42:26.578Z,96673.03
2022-12-24T02:45:04.804Z,96675.44
2022-12-24T02:47:34.189Z,96680.09
2022-12-24T02:50:02.453Z,96697.47
2022-12-24T02:52:34.724Z,96695.72
2022-12-24T02:55:19.649Z,96694.78
2022-12-24T02:58:07.442Z,96691.06
2022-12-24T03:00:43.781Z,96680.75
2022-12-24T03:03:36.826Z,96700.66
2022-12-24T03:06:23.917Z,96701.84
2022-12-24T03:09:28.134Z,96707.66
2022-12-24T03:12:04.710Z,96712.38
2022-12-24T03:14:34.760Z,96710.53
2022-12-24T03:17:03.189Z,96713.31
2022-12-24T03:19:31.474Z,96714.97
2022-12-24T03:21:59.430Z,96726.47
2022-12-24T03:24:26.056Z,96723.31
2022-12-24T03:26:52.933Z,96741.00
2022-12-24T03:29:20.482Z,96747.66
2022-12-24T03:31:52.907Z,96747.50
2022-12-24T03:34:19.966Z,96745.22
2022-12-24T03:36:47.997Z,96750.22
2022-12-24T03:39:14.456Z,96736.00
2022-12-24T03:41:40.878Z,96748.34
2022-12-24T03:44:07.337Z,96742.03
2022-12-24T03:46:33.917Z,96748.34
2022-12-24T03:49:00.472Z,96758.09
2022-12-24T03:51:27.503Z,96752.91
2022-12-24T03:53:55.720Z,96757.19
2022-12-24T03:56:22.760Z,96758.13
2022-12-24T03:58:49.557Z,96765.81
2022-12-24T04:01:17.197Z,96763.09
2022-12-24T04:03:44.636Z,96759.41
2022-12-24T04:06:14.726Z,96754.56
2022-12-24T04:08:41.753Z,96748.19
2022-12-24T04:11:10.642Z,96753.44
2022-12-24T04:13:37.531Z,96758.13
2022-12-24T04:16:08.434Z,96749.66
2022-12-24T04:18:35.380Z,96748.72
2022-12-24T04:21:02.014Z,96752.66
2022-12-24T04:23:31.518Z,96752.53
2022-12-24T04:26:02.239Z,96765.63
2022-12-24T04:28:30.014Z,96775.81
2022-12-24T04:31:01.280Z,96759.66
2022-12-24T04:33:27.963Z,96754.31
2022-12-24T04:35:54.788Z,96743.63
2022-12-24T04:38:21.221Z,96753.81
2022-12-24T04:40:48.004Z,96757.81
2022-12-24T04:43:15.413Z,96761.28
2022-12-24T04:45:41.824Z,96769.34
2022-12-24T04:48:08.384Z,96785.59
2022-12-24T04:50:34.985Z,96777.31
2022-12-24T04:53:01.524Z,96777.16
2022-12-24T04:55:27.967Z,96782.09
2022-12-24T04:57:54.507Z,96775.09
2022-12-24T05:00:21.068Z,96787.03
2022-12-24T05:02:47.977Z,96795.97
2022-12-24T05:05:14.753Z,96789.19
2022-12-24T05:07:41.207Z,96798.63
2022-12-24T05:10:08.514Z,96815.84
2022-12-24T05:12:34.961Z,96802.84
2022-12-24T05:15:01.583Z,96793.66
2022-12-24T05:17:28.167Z,96800.94
2022-12-24T05:19:54.667Z,96802.19
2022-12-24T05:22:39.490Z,96796.72
2022-12-24T05:25:24.760Z,96811.28
2022-12-24T05:27:51.665Z,96830.44
2022-12-24T05:30:18.284Z,96808.16
2022-12-24T05:32:44.972Z,96801.63
2022-12-24T05:35:11.508Z,96809.28
2022-12-24T05:37:38.072Z,96809.22
2022-12-24T05:40:04.986Z,96799.50
2022-12-24T05:42:31.389Z,96801.78
2022-12-24T05:44:57.830Z,96801.69
2022-12-24T05:47:24.418Z,96806.09
2022-12-24T05:49:51.016Z,96799.53
2022-12-24T05:52:17.459Z,96800.09
2022-12-24T05:54:43.950Z,96797.84
2022-12-24T05:57:10.663Z,96790.97
2022-12-24T05:59:37.274Z,96796.34
2022-12-24T06:02:03.931Z,96800.16
2022-12-24T06:04:30.672Z,96795.50
2022-12-24T06:06:57.397Z,96805.06
2022-12-24T06:09:23.999Z,96803.94
2022-12-24T06:11:50.485Z,96813.75
2022-12-24T06:14:17.043Z,96805.75
2022-12-24T06:16:43.441Z,96815.34
2022-12-24T06:19:09.953Z,96811.50
2022-12-24T06:21:36.394Z,96794.44
2022-12-24T06:24:03.215Z,96796.28
2022-12-24T06:26:29.662Z,96785.50
2022-12-24T06:28:56.085Z,96789.38
2022-12-24T06:31:23.657Z,96794.53
2022-12-24T06:33:51.542Z,96799.00
2022-12-24T06:36:25.047Z,96805.97
2022-12-24T06:38:53.421Z,96806.47
2022-12-24T06:41:21.085Z,96808.84
2022-12-24T06:43:50.011Z,96815.09
2022-12-24T06:46:17.519Z,96800.91
2022-12-24T06:48:45.394Z,96816.63
2022-12-24T06:51:13.822Z,96827.06
2022-12-24T06:53:40.556Z,96837.34
2022-12-24T06:56:12.196Z,96850.78
2022-12-24T06:58:40.770Z,96862.25
2022-12-24T07:01:13.525Z,96848.63
2022-12-24T07:03:40.598Z,96857.56
2022-12-24T07:06:08.177Z,96866.03
2022-12-24T07:08:36.404Z,96861.34
2022-12-24T07:11:03.676Z,96867.59
2022-12-24T07:13:31.707Z,96876.00
2022-12-24T07:15:58.878Z,96882.38
2022-12-24T07:18:25.781Z,96871.19
2022-12-24T07:20:52.622Z,96884.91
2022-12-24T07:23:19.149Z,96896.38
2022-12-24T07:25:45.713Z,96898.13
2022-12-24T07:28:12.702Z,96900.25
2022-12-24T07:30:39.291Z,96906.34
2022-12-24T07:33:05.881Z,96914.75
2022-12-24T07:35:32.482Z,96909.50
2022-12-24T07:37:58.885Z,96913.53
2022-12-24T07:40:25.615Z,96906.91
2022-12-24T07:42:52.204Z,96914.63
2022-12-24T07:45:18.752Z,96910.56
2022-12-24T07:47:45.308Z,96918.00
2022-12-24T07:50:11.982Z,96914.63
2022-12-24T07:52:38.511Z,96918.78
2022-12-24T07:55:05.381Z,96919.09
2022-12-24T07:57:31.922Z,96939.53
2022-12-24T07:59:58.464Z,96941.44
2022-12-24T08:02:25.234Z,96938.66
2022-12-24T08:04:52.031Z,96941.75
2022-12-24T08:07:18.576Z,96951.00
2022-12-24T08:09:46.302Z,96953.56
2022-12-24T08:12:12.815Z,96959.75
2022-12-24T08:14:39.483Z,96956.28
2022-12-24T08:17:05.974Z,96964.44
2022-12-24T08:19:32.575Z,96958.34
2022-12-24T08:21:59.186Z,96966.38
2022-12-24T08:24:25.715Z,96965.34
2022-12-24T08:26:52.189Z,96969.19
2022-12-24T08:29:18.760Z,96975.50
2022-12-24T08:31:45.360Z,96963.50
2022-12-24T08:34:12.081Z,96973.25
2022-12-24T08:36:38.676Z,96967.69
2022-12-24T08:39:08.602Z,96981.09
2022-12-24T08:41:35.622Z,96977.34
2022-12-24T08:44:02.140Z,96981.56
2022-12-24T08:46:28.717Z,96989.00
2022-12-24T08:48:55.252Z,96992.75
2022-12-24T08:51:21.820Z,96986.28
2022-12-24T08:53:48.358Z,96982.69
2022-12-24T08:56:14.939Z,96978.16
2022-12-24T08:58:41.573Z,96986.94
2022-12-24T09:01:17.258Z,96984.47
2022-12-24T09:03:44.353Z,96995.31
2022-12-24T09:06:11.890Z,96999.41
2022-12-24T09:08:38.674Z,96992.81
2022-12-24T09:11:11.923Z,96992.88
2022-12-24T09:13:39.106Z,96994.69
2022-12-24T09:16:06.544Z,97002.06
2022-12-24T09:18:33.381Z,97003.50
2022-12-24T09:21:11.374Z,97014.56
2022-12-24T09:23:41.891Z,97015.84
2022-12-24T09:26:10.278Z,97013.09
2022-12-24T09:28:36.787Z,97004.00
2022-12-24T09:31:05.143Z,97011.25
2022-12-24T09:33:34.431Z,96997.88
2022-12-24T09:36:01.819Z,97005.19
2022-12-24T09:38:28.917Z,97017.56
2022-12-24T09:40:56.268Z,97014.56
2022-12-24T09:43:26.489Z,97017.75
2022-12-24T09:46:11.552Z,97014.00
2022-12-24T09:48:43.734Z,97007.19
2022-12-24T09:51:16.183Z,97000.69
2022-12-24T09:53:57.360Z,97004.25
2022-12-24T09:56:27.493Z,96998.38
2022-12-24T09:59:01.952Z,97013.53
2022-12-24T10:01:34.053Z,97010.84
2022-12-24T10:04:04.136Z,97002.75
2022-12-24T10:06:44.668Z,97017.84
2022-12-24T10:09:37.165Z,97012.16
2022-12-24T10:12:45.921Z,97023.31
2022-12-24T10:15:31.425Z,97023.94
2022-12-24T10:18:18.198Z,97031.88
2022-12-24T10:20:49.610Z,97020.75
2022-12-24T10:23:22.070Z,97032.63
2022-12-24T10:26:05.900Z,97034.72
2022-12-24T10:28:44.007Z,97043.59
2022-12-24T10:31:10.894Z,97043.16
2022-12-24T10:33:49.970Z,97053.84
2022-12-24T10:36:19.255Z,97058.94
2022-12-24T10:38:46.690Z,97048.50
2022-12-24T10:41:15.152Z,97042.53
2022-12-24T10:43:45.084Z,97039.28
2022-12-24T10:46:32.969Z,97029.06
2022-12-24T10:49:01.969Z,97035.59
2022-12-24T10:51:58.722Z,97038.94
2022-12-24T10:54:28.128Z,97034.59
2022-12-24T10:57:02.413Z,97035.03
2022-12-24T10:59:49.516Z,97047.16
2022-12-24T11:02:29.881Z,97025.94
2022-12-24T11:04:59.423Z,97029.63
2022-12-24T11:07:26.947Z,97029.69
2022-12-24T11:09:58.389Z,97034.25
2022-12-24T11:12:28.298Z,97035.53
2022-12-24T11:15:17.653Z,97036.06
2022-12-24T11:17:59.207Z,97028.53
2022-12-24T11:20:30.321Z,97029.69
2022-12-24T11:22:57.880Z,97032.28
2022-12-24T11:25:32.745Z,97035.31
2022-12-24T11:28:30.162Z,97030.91
2022-12-24T11:31:06.055Z,97029.31
2022-12-24T11:33:45.902Z,97028.34
2022-12-24T11:36:13.559Z,97029.13
2022-12-24T11:38:40.698Z,97018.34
2022-12-24T11:41:11.561Z,97025.13
2022-12-24T11:43:45.044Z,97018.06
2022-12-24T11:46:15.152Z,97016.31
2022-12-24T11:48:43.883Z,97008.75
2022-12-24T11:51:30.677Z,97025.69
2022-12-24T11:54:06.102Z,97013.50
2022-12-24T11:56:41.185Z,97023.91
2022-12-24T11:59:18.102Z,97023.28
2022-12-24T12:01:56.817Z,97019.16
2022-12-24T12:04:30.472Z,97012.84
2022-12-24T12:07:00.647Z,97022.00
2022-12-24T12:09:32.501Z,97008.75
2022-12-24T12:12:20.467Z,97014.50
2022-12-24T12:14:57.680Z,96997.13
2022-12-24T12:17:33.825Z,96996.34
2022-12-24T12:20:11.247Z,96998.06
2022-12-24T12:23:05.721Z,96980.72
2022-12-24T12:25:37.316Z,96985.38
2022-12-24T12:28:11.819Z,96995.44
2022-12-24T12:30:41.083Z,96992.25
2022-12-24T12:33:20.055Z,97004.53
2022-12-24T12:35:48.905Z,97000.06
2022-12-24T12:38:22.884Z,97004.25
2022-12-24T12:41:04.637Z,97007.31
2022-12-24T12:44:02.953Z,97018.81
2022-12-24T12:46:58.820Z,97020.28
2022-12-24T12:50:08.424Z,97024.19
2022-12-24T12:53:12.360Z,97019.84
2022-12-24T12:55:53.803Z,97021.72
2022-12-24T12:58:26.957Z,97016.06
2022-12-24T13:01:03.521Z,97016.41
2022-12-24T13:04:07.324Z,97019.34
2022-12-24T13:06:58.151Z,97025.00
2022-12-24T13:09:43.382Z,97022.22
2022-12-24T13:12:31.243Z,97032.59
2022-12-24T13:15:19.581Z,97024.28
2022-12-24T13:18:18.144Z,97019.91
2022-12-24T13:20:50.390Z,97021.81
2022-12-24T13:23:22.759Z,97016.84
2022-12-24T13:25:55.032Z,97022.53
2022-12-24T13:28:24.744Z,97022.81
2022-12-24T13:31:01.319Z,97022.38
2022-12-24T13:33:34.050Z,97020.75
2022-12-24T13:36:07.957Z,97017.41
2022-12-24T13:38:46.350Z,97016.78
2022-12-24T13:41:41.179Z,97012.06
2022-12-24T13:44:14.126Z,97014.38
2022-12-24T13:46:58.253Z,97007.91
2022-12-24T13:49:54.827Z,97002.13
2022-12-24T13:52:24.968Z,97009.28
2022-12-24T13:54:54.167Z,97017.28
2022-12-24T13:57:26.291Z,97007.97
2022-12-24T14:00:21.033Z,97012.22
2022-12-24T14:03:02.879Z,97010.84
2022-12-24T14:05:47.163Z,97009.25
2022-12-24T14:08:22.795Z,97009.97
2022-12-24T14:11:07.773Z,97002.84
2022-12-24T14:13:40.400Z,96995.06
2022-12-24T14:16:16.393Z,96996.81
2022-12-24T14:18:57.922Z,96994.63
2022-12-24T14:21:51.846Z,96999.03
2022-12-24T14:24:25.712Z,96995.16
2022-12-24T14:26:57.137Z,96994.47
2022-12-24T14:29:33.906Z,96999.66
2022-12-24T14:32:04.678Z,97000.38
2022-12-24T14:34:31.785Z,97003.16
2022-12-24T14:37:01.592Z,97001.13
2022-12-24T14:39:34.225Z,97013.53
2022-12-24T14:42:29.429Z,97009.53
2022-12-24T14:45:34.019Z,97006.81
2022-12-24T14:48:28.515Z,97008.03
2022-12-24T14:51:18.222Z,97008.66
2022-12-24T14:54:14.855Z,97004.47
2022-12-24T14:56:41.435Z,97012.59
2022-12-24T14:59:19.329Z,97008.03
2022-12-24T15:01:47.017Z,97000.75
2022-12-24T15:04:17.621Z,96999.56
2022-12-24T15:06:56.806Z,97006.78
2022-12-24T15:09:31.855Z,97012.84
2022-12-24T15:12:03.600Z,97016.41
2022-12-24T15:14:39.073Z,97018.38
2022-12-24T15:17:07.542Z,97025.28
2022-12-24T15:19:38.060Z,97031.53
2022-12-24T15:22:09.614Z,97036.19
2022-12-24T15:24:44.563Z,97020.34
2022-12-24T15:27:20.623Z,97032.25
2022-12-24T15:29:50.299Z,97029.47
2022-12-24T15:32:19.096Z,97042.03
2022-12-24T15:34:48.578Z,97044.09
2022-12-24T15:37:20.692Z,97048.88
2022-12-24T15:39:56.710Z,97047.31
2022-12-24T15:42:25.089Z,97044.13
2022-12-24T15:45:27.651Z,97050.75
2022-12-24T15:48:10.855Z,97053.56
2022-12-24T15:50:43.451Z,97052.84
2022-12-24T15:53:22.355Z,97058.75
2022-12-24T15:56:09.216Z,97058.44
2022-12-24T15:58:38.912Z,97060.69
2022-12-24T16:01:15.291Z,97053.84
2022-12-24T16:04:02.641Z,97061.00
2022-12-24T16:07:02.056Z,97054.88
2022-12-24T16:09:43.668Z,97047.00
2022-12-24T16:12:20.831Z,97049.81
2022-12-24T16:14:51.612Z,97049.59
2022-12-24T16:17:23.719Z,97051.44
2022-12-24T16:19:53.771Z,97050.41
2022-12-24T16:22:31.932Z,97048.91
2022-12-24T16:25:22.905Z,97060.22
2022-12-24T16:27:50.735Z,97069.63
2022-12-24T16:30:18.185Z,97065.19
2022-12-24T16:32:46.268Z,97057.16
2022-12-24T16:35:33.601Z,97067.50
2022-12-24T16:38:00.117Z,97077.59
2022-12-24T16:40:27.983Z,97086.44
2022-12-24T16:43:15.351Z,97085.84
2022-12-24T16:45:42.937Z,97080.81
2022-12-24T16:48:17.006Z,97093.00
2022-12-24T16:50:43.541Z,97088.41
2022-12-24T16:53:17.678Z,97091.63
2022-12-24T16:55:46.064Z,97086.50
2022-12-24T16:58:14.298Z,97089.06
2022-12-24T17:00:41.899Z,97083.22
2022-12-24T17:03:09.169Z,97087.44
2022-12-24T17:05:40.564Z,97083.00
2022-12-24T17:08:08.164Z,97091.00
2022-12-24T17:10:34.958Z,97108.03
2022-12-24T17:13:01.748Z,97102.69
2022-12-24T17:15:28.315Z,97106.59
2022-12-24T17:17:54.865Z,97113.19
2022-12-24T17:20:24.312Z,97123.91
2022-12-24T17:22:51.580Z,97120.13
2022-12-24T17:25:18.365Z,97116.53
2022-12-24T17:27:45.025Z,97117.31
2022-12-24T17:30:12.216Z,97118.38
2022-12-24T17:32:39.702Z,97120.63
2022-12-24T17:35:07.652Z,97122.84
2022-12-24T17:37:34.615Z,97117.41
2022-12-24T17:40:01.446Z,97137.75
2022-12-24T17:42:27.950Z,97140.97
2022-12-24T17:44:54.468Z,97141.44
2022-12-24T17:47:21.001Z,97139.56
2022-12-24T17:49:47.508Z,97140.69
2022-12-24T17:52:13.948Z,97147.16
2022-12-24T17:54:40.406Z,97159.75
2022-12-24T17:57:06.845Z,97151.31
2022-12-24T17:59:33.336Z,97145.56
2022-12-24T18:01:59.882Z,97146.34
2022-12-24T18:04:26.795Z,97144.28
2022-12-24T18:06:59.625Z,97143.44
2022-12-24T18:09:28.825Z,97146.16
2022-12-24T18:11:55.393Z,97157.31
2022-12-24T18:14:21.818Z,97147.28
2022-12-24T18:16:49.442Z,97152.56
2022-12-24T18:19:16.167Z,97150.06
2022-12-24T18:21:42.646Z,97146.72
2022-12-24T18:24:10.841Z,97143.50
2022-12-24T18:26:37.603Z,97149.66
2022-12-24T18:29:04.743Z,97145.78
2022-12-24T18:31:33.922Z,97144.44
2022-12-24T18:34:02.137Z,97143.03
2022-12-24T18:36:29.096Z,97142.09
2022-12-24T18:38:55.893Z,97133.72
2022-12-24T18:41:25.757Z,97137.19
2022-12-24T18:43:53.487Z,97139.38
2022-12-24T18:46:23.749Z,97133.78
2022-12-24T18:48:51.474Z,97123.72
2022-12-24T18:51:22.041Z,97140.16
2022-12-24T18:53:49.330Z,97134.19
2022-12-24T18:56:18.903Z,97134.09
2022-12-24T18:58:45.567Z,97146.44
2022-12-24T19:01:15.363Z,97140.84
2022-12-24T19:03:42.555Z,97141.50
2022-12-24T19:06:09.358Z,97137.19
2022-12-24T19:11:23.223Z,97155.28
2022-12-24T19:13:50.853Z,97148.25
2022-12-24T19:16:18.175Z,97154.16
2022-12-24T19:18:44.944Z,97149.53
2022-12-24T19:21:13.570Z,97153.47
2022-12-24T19:23:40.102Z,97140.56
2022-12-24T19:26:06.570Z,97142.16
2022-12-24T19:28:33.214Z,97143.97
2022-12-24T19:31:04.511Z,97141.44
2022-12-24T19:33:31.009Z,97137.38
2022-12-24T19:35:57.567Z,97138.38
2022-12-24T19:38:24.072Z,97129.13
2022-12-24T19:40:50.581Z,97135.72
2022-12-24T19:43:17.002Z,97139.09
2022-12-24T19:45:43.623Z,97144.13
2022-12-24T19:48:10.483Z,97140.56
2022-12-24T19:50:36.896Z,97139.63
2022-12-24T19:53:03.551Z,97147.50
2022-12-24T19:55:30.037Z,97152.78
2022-12-24T19:57:56.573Z,97156.31
2022-12-24T20:00:23.174Z,97159.72
2022-12-24T20:02:49.864Z,97166.13
2022-12-24T20:05:16.551Z,97166.88
2022-12-24T20:07:42.999Z,97163.19
2022-12-24T20:10:09.805Z,97169.22
2022-12-24T20:12:36.204Z,97173.78
2022-12-24T20:15:02.753Z,97177.91
2022-12-24T20:17:29.192Z,97171.47
2022-12-24T20:19:55.878Z,97183.00
2022-12-24T20:22:22.406Z,97183.44
2022-12-24T20:24:48.869Z,97177.78
2022-12-24T20:27:15.544Z,97179.94
2022-12-24T20:29:42.054Z,97183.25
2022-12-24T20:32:08.485Z,97183.03
2022-12-24T20:34:35.128Z,97184.63
2022-12-24T20:37:01.629Z,97199.53
2022-12-24T20:39:28.289Z,97200.88
2022-12-24T20:41:54.767Z,97205.25
2022-12-24T20:44:21.260Z,97215.09
2022-12-24T20:46:47.791Z,97217.03
2022-12-24T20:49:14.701Z,97217.00
2022-12-24T20:51:41.201Z,97218.00
2022-12-24T20:54:07.635Z,97228.09
2022-12-24T20:56:34.225Z,97220.53
2022-12-24T20:59:01.683Z,97223.66
2022-12-24T21:01:29.296Z,97221.69
2022-12-24T21:03:57.260Z,97221.34
2022-12-24T21:06:25.028Z,97220.06
2022-12-24T21:08:53.533Z,97223.94
2022-12-24T21:11:39.983Z,97225.56
2022-12-24T21:14:07.045Z,97228.03
2022-12-24T21:16:35.354Z,97219.06
2022-12-24T21:19:02.296Z,97223.53
2022-12-24T21:21:28.826Z,97232.59
2022-12-24T21:23:55.379Z,97223.06
2022-12-24T21:26:21.887Z,97230.91
2022-12-24T21:28:49.094Z,97230.88
2022-12-24T21:31:16.025Z,97230.19
2022-12-24T21:33:42.899Z,97241.91
2022-12-24T21:36:12.223Z,97240.44
2022-12-24T21:38:38.925Z,97239.66
2022-12-24T21:41:08.998Z,97242.84
2022-12-24T21:43:36.328Z,97236.25
2022-12-24T21:46:11.191Z,97231.38
2022-12-24T21:48:57.655Z,97221.78
2022-12-24T21:51:26.679Z,97235.06
2022-12-24T21:54:12.644Z,97222.16
2022-12-24T21:56:58.333Z,97215.47
2022-12-24T21:59:26.970Z,97214.22
2022-12-24T22:01:54.617Z,97216.06
2022-12-24T22:04:21.330Z,97213.75
2022-12-24T22:07:06.561Z,97212.69
2022-12-24T22:09:51.585Z,97218.06
2022-12-24T22:12:18.339Z,97217.25
2022-12-24T22:14:44.866Z,97214.50
2022-12-24T22:17:11.672Z,97223.44
2022-12-24T22:19:38.183Z,97209.28
2022-12-24T22:22:04.726Z,97224.50
2022-12-24T22:24:31.253Z,97212.25
2022-12-24T22:26:58.181Z,97211.47
2022-12-24T22:29:25.127Z,97212.94
2022-12-24T22:31:51.737Z,97202.22
2022-12-24T22:34:18.224Z,97202.16
2022-12-24T22:36:44.759Z,97196.31
2022-12-24T22:39:11.319Z,97192.88
2022-12-24T22:41:37.931Z,97182.56
2022-12-24T22:44:04.663Z,97187.81
2022-12-24T22:46:31.207Z,97186.66
2022-12-24T22:48:57.881Z,97175.41
2022-12-24T22:51:24.454Z,97166.63
2022-12-24T22:53:51.258Z,97167.16
2022-12-24T22:56:23.038Z,97161.84
2022-12-24T22:58:54.281Z,97152.91
2022-12-24T23:01:38.604Z,97157.31
2022-12-24T23:04:07.060Z,97162.00
2022-12-24T23:06:35.294Z,97159.22
2022-12-24T23:09:02.482Z,97158.75
2022-12-24T23:11:28.973Z,97153.81
2022-12-24T23:14:14.097Z,97150.38
2022-12-24T23:16:40.533Z,97151.94
2022-12-24T23:19:07.162Z,97149.38
2022-12-24T23:21:34.340Z,97147.31
2022-12-24T23:24:01.612Z,97143.16
2022-12-24T23:26:28.832Z,97127.41
2022-12-24T23:28:56.143Z,97124.25
2022-12-24T23:31:24.159Z,97115.22
2022-12-24T23:33:51.061Z,97119.53
2022-12-24T23:36:18.018Z,97118.19
2022-12-24T23:38:44.597Z,97124.31
2022-12-24T23:41:11.483Z,97125.88
2022-12-24T23:43:38.207Z,97133.34
2022-12-24T23:46:05.370Z,97136.13
2022-12-24T23:48:32.037Z,97132.41
2022-12-24T23:51:06.671Z,97132.13
2022-12-24T23:53:33.275Z,97135.25
2022-12-24T23:56:02.176Z,97106.13
2022-12-24T23:58:28.661Z,97110.13
